sensor_id;sensor_type;location;lat;lon;timestamp;pressure;altitude;pressure_sealevel;temperature;humidity
64908;BME280;51412;52.236;5.188;2022-08-01T00:01:42;101632.72;;;20.68;87.71
64908;BME280;51412;52.236;5.188;2022-08-01T00:04:08;101642.00;;;20.67;88.18
64908;BME280;51412;52.236;5.188;2022-08-01T00:06:35;101638.19;;;20.65;88.25
64908;BME280;51412;52.236;5.188;2022-08-01T00:09:01;101630.47;;;20.63;88.27
64908;BME280;51412;52.236;5.188;2022-08-01T00:11:28;101624.78;;;20.58;88.35
64908;BME280;51412;52.236;5.188;2022-08-01T00:13:54;101631.31;;;20.60;88.61
64908;BME280;51412;52.236;5.188;2022-08-01T00:16:21;101633.25;;;20.60;88.86
64908;BME280;51412;52.236;5.188;2022-08-01T00:18:50;101632.16;;;20.57;88.78
64908;BME280;51412;52.236;5.188;2022-08-01T00:21:16;101633.31;;;20.56;89.04
64908;BME280;51412;52.236;5.188;2022-08-01T00:23:43;101635.25;;;20.56;88.69
64908;BME280;51412;52.236;5.188;2022-08-01T00:26:12;101644.13;;;20.56;88.83
64908;BME280;51412;52.236;5.188;2022-08-01T00:28:38;101641.00;;;20.58;88.88
64908;BME280;51412;52.236;5.188;2022-08-01T00:31:05;101646.81;;;20.56;88.68
64908;BME280;51412;52.236;5.188;2022-08-01T00:33:31;101644.53;;;20.55;88.94
64908;BME280;51412;52.236;5.188;2022-08-01T00:35:59;101647.59;;;20.57;88.96
64908;BME280;51412;52.236;5.188;2022-08-01T00:38:26;101646.81;;;20.56;89.23
64908;BME280;51412;52.236;5.188;2022-08-01T00:40:52;101642.59;;;20.55;89.37
64908;BME280;51412;52.236;5.188;2022-08-01T00:43:19;101645.28;;;20.55;89.40
64908;BME280;51412;52.236;5.188;2022-08-01T00:45:45;101632.19;;;20.53;89.63
64908;BME280;51412;52.236;5.188;2022-08-01T00:48:12;101642.59;;;20.55;89.84
64908;BME280;51412;52.236;5.188;2022-08-01T00:50:39;101646.81;;;20.56;89.78
64908;BME280;51412;52.236;5.188;2022-08-01T00:53:07;101646.81;;;20.56;89.75
64908;BME280;51412;52.236;5.188;2022-08-01T00:55:34;101651.47;;;20.56;89.61
64908;BME280;51412;52.236;5.188;2022-08-01T00:58:01;101651.47;;;20.56;89.91
64908;BME280;51412;52.236;5.188;2022-08-01T01:00:28;101650.69;;;20.55;90.09
64908;BME280;51412;52.236;5.188;2022-08-01T01:02:54;101658.78;;;20.55;90.08
64908;BME280;51412;52.236;5.188;2022-08-01T01:05:21;101654.56;;;20.54;90.17
64908;BME280;51412;52.236;5.188;2022-08-01T01:07:51;101658.78;;;20.55;90.08
64908;BME280;51412;52.236;5.188;2022-08-01T01:10:24;101653.38;;;20.55;90.01
64908;BME280;51412;52.236;5.188;2022-08-01T01:12:57;101649.19;;;20.54;90.03
64908;BME280;51412;52.236;5.188;2022-08-01T01:15:30;101652.63;;;20.55;89.90
64908;BME280;51412;52.236;5.188;2022-08-01T01:18:03;101650.34;;;20.53;90.20
64908;BME280;51412;52.236;5.188;2022-08-01T01:20:36;101649.50;;;20.56;90.47
64908;BME280;51412;52.236;5.188;2022-08-01T01:23:16;101645.28;;;20.55;90.77
64908;BME280;51412;52.236;5.188;2022-08-01T01:26:00;101645.28;;;20.55;90.46
64908;BME280;51412;52.236;5.188;2022-08-01T01:28:34;101637.19;;;20.55;90.56
64908;BME280;51412;52.236;5.188;2022-08-01T01:31:05;101639.13;;;20.55;90.58
64908;BME280;51412;52.236;5.188;2022-08-01T01:33:34;101637.19;;;20.55;90.75
64908;BME280;51412;52.236;5.188;2022-08-01T01:36:05;101644.53;;;20.55;90.77
64908;BME280;51412;52.236;5.188;2022-08-01T01:38:39;101644.53;;;20.55;90.94
64908;BME280;51412;52.236;5.188;2022-08-01T01:41:08;101643.69;;;20.58;90.82
64908;BME280;51412;52.236;5.188;2022-08-01T01:43:36;101642.19;;;20.57;90.82
64908;BME280;51412;52.236;5.188;2022-08-01T01:46:07;101645.66;;;20.57;90.68
64908;BME280;51412;52.236;5.188;2022-08-01T01:48:35;101652.16;;;20.60;90.69
64908;BME280;51412;52.236;5.188;2022-08-01T01:51:04;101648.69;;;20.59;90.56
64908;BME280;51412;52.236;5.188;2022-08-01T01:53:33;101654.09;;;20.59;90.49
64908;BME280;51412;52.236;5.188;2022-08-01T01:56:01;101643.69;;;20.58;90.74
64908;BME280;51412;52.236;5.188;2022-08-01T01:58:29;101645.22;;;20.59;90.83
64908;BME280;51412;52.236;5.188;2022-08-01T02:00:58;101652.91;;;20.60;90.64
64908;BME280;51412;52.236;5.188;2022-08-01T02:03:28;101646.47;;;20.54;90.39
64908;BME280;51412;52.236;5.188;2022-08-01T02:05:56;101648.34;;;20.57;90.61
64908;BME280;51412;52.236;5.188;2022-08-01T02:08:23;101652.22;;;20.56;90.62
64908;BME280;51412;52.236;5.188;2022-08-01T02:10:52;101654.16;;;20.56;90.71
64908;BME280;51412;52.236;5.188;2022-08-01T02:13:38;101650.69;;;20.55;91.07
64908;BME280;51412;52.236;5.188;2022-08-01T02:16:05;101658.41;;;20.57;90.93
64908;BME280;51412;52.236;5.188;2022-08-01T02:18:35;101654.91;;;20.56;90.86
64908;BME280;51412;52.236;5.188;2022-08-01T02:21:04;101656.09;;;20.55;91.14
64908;BME280;51412;52.236;5.188;2022-08-01T02:23:34;101658.78;;;20.55;91.00
64908;BME280;51412;52.236;5.188;2022-08-01T02:26:06;101666.88;;;20.55;91.10
64908;BME280;51412;52.236;5.188;2022-08-01T02:28:36;101666.13;;;20.55;91.00
64908;BME280;51412;52.236;5.188;2022-08-01T02:31:08;101656.88;;;20.56;91.11
64908;BME280;51412;52.236;5.188;2022-08-01T02:33:41;101657.19;;;20.58;91.13
64908;BME280;51412;52.236;5.188;2022-08-01T02:36:08;101676.75;;;20.65;90.88
64908;BME280;51412;52.236;5.188;2022-08-01T02:38:36;101669.38;;;20.69;90.38
64908;BME280;51412;52.236;5.188;2022-08-01T02:41:07;101669.38;;;20.69;90.26
64908;BME280;51412;52.236;5.188;2022-08-01T02:43:36;101664.72;;;20.70;89.93
64908;BME280;51412;52.236;5.188;2022-08-01T02:46:04;101666.69;;;20.69;90.23
64908;BME280;51412;52.236;5.188;2022-08-01T02:48:34;101660.91;;;20.67;90.10
64908;BME280;51412;52.236;5.188;2022-08-01T02:51:04;101664.78;;;20.66;89.92
64908;BME280;51412;52.236;5.188;2022-08-01T02:53:33;101659.38;;;20.66;90.09
64908;BME280;51412;52.236;5.188;2022-08-01T02:56:05;101667.50;;;20.66;90.12
64908;BME280;51412;52.236;5.188;2022-08-01T02:58:33;101664.00;;;20.66;90.18
64908;BME280;51412;52.236;5.188;2022-08-01T03:01:00;101668.25;;;20.67;90.21
64908;BME280;51412;52.236;5.188;2022-08-01T03:03:28;101658.97;;;20.68;90.08
64908;BME280;51412;52.236;5.188;2022-08-01T03:05:57;101653.56;;;20.68;89.98
64908;BME280;51412;52.236;5.188;2022-08-01T03:08:27;101656.69;;;20.66;89.64
64908;BME280;51412;52.236;5.188;2022-08-01T03:10:56;101653.56;;;20.68;89.67
64908;BME280;51412;52.236;5.188;2022-08-01T03:13:25;101655.16;;;20.65;89.67
64908;BME280;51412;52.236;5.188;2022-08-01T03:15:53;101666.69;;;20.66;89.71
64908;BME280;51412;52.236;5.188;2022-08-01T03:18:21;101667.53;;;20.63;89.57
64908;BME280;51412;52.236;5.188;2022-08-01T03:20:51;101667.94;;;20.61;89.64
64908;BME280;51412;52.236;5.188;2022-08-01T03:23:20;101663.31;;;20.62;89.76
64908;BME280;51412;52.236;5.188;2022-08-01T03:25:51;101669.50;;;20.62;89.55
64908;BME280;51412;52.236;5.188;2022-08-01T03:28:18;101672.94;;;20.63;89.43
64908;BME280;51412;52.236;5.188;2022-08-01T03:30:47;101677.59;;;20.62;89.17
64908;BME280;51412;52.236;5.188;2022-08-01T03:33:15;101678.00;;;20.61;89.28
64908;BME280;51412;52.236;5.188;2022-08-01T03:35:46;101673.81;;;20.56;89.63
64908;BME280;51412;52.236;5.188;2022-08-01T03:38:17;101672.28;;;20.55;89.62
64908;BME280;51412;52.236;5.188;2022-08-01T03:40:47;101674.66;;;20.53;89.66
64908;BME280;51412;52.236;5.188;2022-08-01T03:43:19;101673.13;;;20.52;89.89
64908;BME280;51412;52.236;5.188;2022-08-01T03:45:50;101675.81;;;20.52;89.82
64908;BME280;51412;52.236;5.188;2022-08-01T03:48:19;101682.38;;;20.51;89.71
64908;BME280;51412;52.236;5.188;2022-08-01T03:50:51;101683.91;;;20.52;89.54
64908;BME280;51412;52.236;5.188;2022-08-01T03:53:20;101676.94;;;20.55;89.32
64908;BME280;51412;52.236;5.188;2022-08-01T03:55:49;101676.94;;;20.55;89.08
64908;BME280;51412;52.236;5.188;2022-08-01T03:58:17;101680.00;;;20.57;89.06
64908;BME280;51412;52.236;5.188;2022-08-01T04:00:44;101676.09;;;20.58;88.78
64908;BME280;51412;52.236;5.188;2022-08-01T04:03:12;101678.06;;;20.57;88.78
64908;BME280;51412;52.236;5.188;2022-08-01T04:05:40;101680.75;;;20.57;88.99
64908;BME280;51412;52.236;5.188;2022-08-01T04:08:07;101683.88;;;20.56;88.70
64908;BME280;51412;52.236;5.188;2022-08-01T04:10:33;101675.34;;;20.57;88.66
64908;BME280;51412;52.236;5.188;2022-08-01T04:13:00;101680.75;;;20.57;89.21
64908;BME280;51412;52.236;5.188;2022-08-01T04:15:29;101679.22;;;20.56;88.88
64908;BME280;51412;52.236;5.188;2022-08-01T04:17:55;101689.19;;;20.59;88.81
64908;BME280;51412;52.236;5.188;2022-08-01T04:20:22;101692.25;;;20.61;88.43
64908;BME280;51412;52.236;5.188;2022-08-01T04:22:48;101688.44;;;20.59;88.45
64908;BME280;51412;52.236;5.188;2022-08-01T04:25:17;101697.25;;;20.63;87.76
64908;BME280;51412;52.236;5.188;2022-08-01T04:27:48;101702.66;;;20.63;88.02
64908;BME280;51412;52.236;5.188;2022-08-01T04:30:16;101696.06;;;20.64;87.75
64908;BME280;51412;52.236;5.188;2022-08-01T04:32:46;101697.56;;;20.68;86.94
64908;BME280;51412;52.236;5.188;2022-08-01T04:35:15;101691.78;;;20.66;87.09
64908;BME280;51412;52.236;5.188;2022-08-01T04:37:45;101698.38;;;20.65;87.16
64908;BME280;51412;52.236;5.188;2022-08-01T04:40:14;101692.22;;;20.65;87.28
64908;BME280;51412;52.236;5.188;2022-08-01T04:42:42;101692.25;;;20.61;87.47
64908;BME280;51412;52.236;5.188;2022-08-01T04:45:09;101697.59;;;20.65;87.10
64908;BME280;51412;52.236;5.188;2022-08-01T04:47:38;101706.78;;;20.71;86.77
64908;BME280;51412;52.236;5.188;2022-08-01T04:50:09;101705.56;;;20.76;86.14
64908;BME280;51412;52.236;5.188;2022-08-01T04:52:36;101712.84;;;20.79;85.78
64908;BME280;51412;52.236;5.188;2022-08-01T04:55:04;101719.06;;;20.76;85.55
64908;BME280;51412;52.236;5.188;2022-08-01T04:57:32;101719.47;;;20.74;85.80
64908;BME280;51412;52.236;5.188;2022-08-01T04:59:59;101716.06;;;20.70;86.06
64908;BME280;51412;52.236;5.188;2022-08-01T05:02:27;101725.38;;;20.65;86.32
64908;BME280;51412;52.236;5.188;2022-08-01T05:04:54;101718.44;;;20.64;86.15
64908;BME280;51412;52.236;5.188;2022-08-01T05:07:22;101730.41;;;20.63;86.32
64908;BME280;51412;52.236;5.188;2022-08-01T05:09:49;101722.78;;;20.58;86.61
64908;BME280;51412;52.236;5.188;2022-08-01T05:12:16;101728.69;;;20.49;86.69
64908;BME280;51412;52.236;5.188;2022-08-01T05:14:42;101731.53;;;20.42;87.02
64908;BME280;51412;52.236;5.188;2022-08-01T05:17:09;101721.28;;;20.30;87.49
64908;BME280;51412;52.236;5.188;2022-08-01T05:19:38;101725.97;;;20.26;88.42
64908;BME280;51412;52.236;5.188;2022-08-01T05:22:06;101731.41;;;20.22;88.81
64908;BME280;51412;52.236;5.188;2022-08-01T05:24:36;101732.25;;;20.19;88.71
64908;BME280;51412;52.236;5.188;2022-08-01T05:27:03;101721.09;;;20.17;88.59
64908;BME280;51412;52.236;5.188;2022-08-01T05:29:30;101729.97;;;20.17;88.53
64908;BME280;51412;52.236;5.188;2022-08-01T05:31:57;101727.25;;;20.17;88.41
64908;BME280;51412;52.236;5.188;2022-08-01T05:34:24;101736.94;;;20.15;88.60
64908;BME280;51412;52.236;5.188;2022-08-01T05:36:51;101734.66;;;20.13;89.47
64908;BME280;51412;52.236;5.188;2022-08-01T05:39:17;101737.72;;;20.12;89.65
64908;BME280;51412;52.236;5.188;2022-08-01T05:41:45;101737.78;;;20.08;90.15
64908;BME280;51412;52.236;5.188;2022-08-01T05:44:11;101738.97;;;20.07;90.21
64908;BME280;51412;52.236;5.188;2022-08-01T05:46:38;101735.50;;;20.07;90.29
64908;BME280;51412;52.236;5.188;2022-08-01T05:49:05;101746.94;;;20.14;90.40
64908;BME280;51412;52.236;5.188;2022-08-01T05:51:32;101741.13;;;20.16;90.42
64908;BME280;51412;52.236;5.188;2022-08-01T05:53:59;101740.75;;;20.17;90.59
64908;BME280;51412;52.236;5.188;2022-08-01T05:56:26;101745.22;;;20.28;89.38
64908;BME280;51412;52.236;5.188;2022-08-01T05:58:54;101744.47;;;20.27;89.58
64908;BME280;51412;52.236;5.188;2022-08-01T06:01:20;101754.44;;;20.30;88.90
64908;BME280;51412;52.236;5.188;2022-08-01T06:03:47;101753.63;;;20.33;88.98
64908;BME280;51412;52.236;5.188;2022-08-01T06:06:13;101762.09;;;20.35;88.64
64908;BME280;51412;52.236;5.188;2022-08-01T06:08:40;101759.72;;;20.38;88.64
64908;BME280;51412;52.236;5.188;2022-08-01T06:11:07;101756.66;;;20.39;88.80
64908;BME280;51412;52.236;5.188;2022-08-01T06:13:33;101762.81;;;20.40;88.22
64908;BME280;51412;52.236;5.188;2022-08-01T06:16:01;101763.97;;;20.39;87.92
64908;BME280;51412;52.236;5.188;2022-08-01T06:18:27;101769.78;;;20.37;87.78
64908;BME280;51412;52.236;5.188;2022-08-01T06:20:54;101770.53;;;20.38;87.46
64908;BME280;51412;52.236;5.188;2022-08-01T06:23:21;101773.94;;;20.42;86.87
64908;BME280;51412;52.236;5.188;2022-08-01T06:25:47;101773.94;;;20.42;86.37
64908;BME280;51412;52.236;5.188;2022-08-01T06:28:14;101772.03;;;20.42;86.10
64908;BME280;51412;52.236;5.188;2022-08-01T06:30:41;101775.16;;;20.37;86.54
64908;BME280;51412;52.236;5.188;2022-08-01T06:33:08;101753.38;;;20.24;86.89
64908;BME280;51412;52.236;5.188;2022-08-01T06:35:35;101775.22;;;20.33;86.66
64908;BME280;51412;52.236;5.188;2022-08-01T06:38:02;101774.47;;;20.33;86.33
64908;BME280;51412;52.236;5.188;2022-08-01T06:40:28;101777.91;;;20.33;86.52
64908;BME280;51412;52.236;5.188;2022-08-01T06:42:55;101767.53;;;20.32;86.73
64908;BME280;51412;52.236;5.188;2022-08-01T06:45:21;101781.75;;;20.36;86.73
64908;BME280;51412;52.236;5.188;2022-08-01T06:47:49;101789.09;;;20.35;86.97
64908;BME280;51412;52.236;5.188;2022-08-01T06:50:18;101786.00;;;20.33;86.42
64908;BME280;51412;52.236;5.188;2022-08-01T06:52:44;101795.34;;;20.29;86.47
64908;BME280;51412;52.236;5.188;2022-08-01T06:55:11;101792.22;;;20.30;86.15
64908;BME280;51412;52.236;5.188;2022-08-01T06:57:46;101801.47;;;20.33;86.46
64908;BME280;51412;52.236;5.188;2022-08-01T07:00:13;101801.41;;;20.36;85.77
64908;BME280;51412;52.236;5.188;2022-08-01T07:02:41;101800.94;;;20.42;85.73
64908;BME280;51412;52.236;5.188;2022-08-01T07:05:08;101797.44;;;20.45;85.26
64908;BME280;51412;52.236;5.188;2022-08-01T07:07:36;101802.78;;;20.48;84.60
64908;BME280;51412;52.236;5.188;2022-08-01T07:10:04;101796.91;;;20.53;83.62
64908;BME280;51412;52.236;5.188;2022-08-01T07:12:30;101817.72;;;20.57;82.51
64908;BME280;51412;52.236;5.188;2022-08-01T07:14:57;101812.22;;;20.64;81.83
64908;BME280;51412;52.236;5.188;2022-08-01T07:17:24;101809.56;;;20.60;81.46
64908;BME280;51412;52.236;5.188;2022-08-01T07:19:51;101820.34;;;20.60;80.98
64908;BME280;51412;52.236;5.188;2022-08-01T07:22:19;101823.47;;;20.59;80.67
64908;BME280;51412;52.236;5.188;2022-08-01T07:24:47;101823.50;;;20.55;81.13
64908;BME280;51412;52.236;5.188;2022-08-01T07:27:14;101816.22;;;20.52;81.14
64908;BME280;51412;52.236;5.188;2022-08-01T07:29:41;101831.28;;;20.53;80.97
64908;BME280;51412;52.236;5.188;2022-08-01T07:32:07;101821.63;;;20.52;80.82
64908;BME280;51412;52.236;5.188;2022-08-01T07:34:34;101825.84;;;20.57;80.49
64908;BME280;51412;52.236;5.188;2022-08-01T07:37:00;101822.66;;;20.62;80.18
64908;BME280;51412;52.236;5.188;2022-08-01T07:39:27;101829.91;;;20.68;80.52
64908;BME280;51412;52.236;5.188;2022-08-01T07:41:54;101825.59;;;20.75;80.38
64908;BME280;51412;52.236;5.188;2022-08-01T07:44:21;101833.16;;;20.83;80.34
64908;BME280;51412;52.236;5.188;2022-08-01T07:46:47;101837.66;;;20.94;79.59
64908;BME280;51412;52.236;5.188;2022-08-01T07:49:14;101836.66;;;21.08;79.29
64908;BME280;51412;52.236;5.188;2022-08-01T07:51:40;101846.53;;;21.18;78.44
64908;BME280;51412;52.236;5.188;2022-08-01T07:54:07;101840.66;;;21.23;77.44
64908;BME280;51412;52.236;5.188;2022-08-01T07:56:33;101844.78;;;21.31;76.89
64908;BME280;51412;52.236;5.188;2022-08-01T07:59:01;101854.38;;;21.32;75.66
64908;BME280;51412;52.236;5.188;2022-08-01T08:01:28;101848.50;;;21.37;75.71
64908;BME280;51412;52.236;5.188;2022-08-01T08:03:54;101857.41;;;21.38;75.29
64908;BME280;51412;52.236;5.188;2022-08-01T08:06:21;101851.09;;;21.45;74.83
64908;BME280;51412;52.236;5.188;2022-08-01T08:08:47;101859.06;;;21.56;73.85
64908;BME280;51412;52.236;5.188;2022-08-01T08:11:14;101848.94;;;21.60;73.48
64908;BME280;51412;52.236;5.188;2022-08-01T08:13:41;101853.50;;;21.63;73.18
64908;BME280;51412;52.236;5.188;2022-08-01T08:16:09;101849.00;;;21.56;72.31
64908;BME280;51412;52.236;5.188;2022-08-01T08:18:35;101857.97;;;21.49;71.83
64908;BME280;51412;52.236;5.188;2022-08-01T08:21:03;101849.84;;;21.53;72.29
64908;BME280;51412;52.236;5.188;2022-08-01T08:23:29;101861.25;;;21.61;72.73
64908;BME280;51412;52.236;5.188;2022-08-01T08:26:14;101861.91;;;21.68;72.69
64908;BME280;51412;52.236;5.188;2022-08-01T08:28:40;101856.28;;;21.79;72.11
64908;BME280;51412;52.236;5.188;2022-08-01T08:31:08;101862.63;;;21.93;71.64
64908;BME280;51412;52.236;5.188;2022-08-01T08:33:34;101869.88;;;21.96;70.35
64908;BME280;51412;52.236;5.188;2022-08-01T08:36:01;101865.16;;;22.00;70.81
64908;BME280;51412;52.236;5.188;2022-08-01T08:38:27;101868.88;;;22.10;68.14
64908;BME280;51412;52.236;5.188;2022-08-01T08:40:54;101874.56;;;22.15;68.76
64908;BME280;51412;52.236;5.188;2022-08-01T08:43:21;101865.03;;;22.27;69.61
64908;BME280;51412;52.236;5.188;2022-08-01T08:45:50;101868.97;;;22.43;68.46
64908;BME280;51412;52.236;5.188;2022-08-01T08:48:18;101869.66;;;22.47;67.59
64908;BME280;51412;52.236;5.188;2022-08-01T08:50:45;101871.53;;;22.50;65.83
64908;BME280;51412;52.236;5.188;2022-08-01T08:53:15;101869.94;;;22.52;66.97
64908;BME280;51412;52.236;5.188;2022-08-01T08:55:43;101877.06;;;22.63;66.62
64908;BME280;51412;52.236;5.188;2022-08-01T08:58:12;101873.84;;;22.68;65.80
64908;BME280;51412;52.236;5.188;2022-08-01T09:00:39;101871.22;;;22.81;66.25
64908;BME280;51412;52.236;5.188;2022-08-01T09:03:06;101869.56;;;22.87;65.21
64908;BME280;51412;52.236;5.188;2022-08-01T09:05:34;101878.38;;;22.91;64.18
64908;BME280;51412;52.236;5.188;2022-08-01T09:08:00;101882.59;;;22.92;63.66
64908;BME280;51412;52.236;5.188;2022-08-01T09:10:27;101883.78;;;23.08;64.56
64908;BME280;51412;52.236;5.188;2022-08-01T09:13:08;101887.91;;;23.12;63.04
64908;BME280;51412;52.236;5.188;2022-08-01T09:15:43;101888.53;;;23.20;62.68
64908;BME280;51412;52.236;5.188;2022-08-01T09:18:25;101900.22;;;23.33;62.97
64908;BME280;51412;52.236;5.188;2022-08-01T09:21:07;101889.97;;;23.41;61.61
64908;BME280;51412;52.236;5.188;2022-08-01T09:23:35;101898.53;;;23.40;60.70
64908;BME280;51412;52.236;5.188;2022-08-01T09:26:04;101904.13;;;23.32;60.83
64908;BME280;51412;52.236;5.188;2022-08-01T09:28:30;101901.91;;;23.27;61.52
64908;BME280;51412;52.236;5.188;2022-08-01T09:30:57;101905.34;;;23.31;61.52
64908;BME280;51412;52.236;5.188;2022-08-01T09:33:24;101906.41;;;23.34;61.01
64908;BME280;51412;52.236;5.188;2022-08-01T09:35:54;101908.53;;;23.43;61.10
64908;BME280;51412;52.236;5.188;2022-08-01T09:38:23;101903.94;;;23.56;61.87
64908;BME280;51412;52.236;5.188;2022-08-01T09:40:53;101908.22;;;23.70;61.49
64908;BME280;51412;52.236;5.188;2022-08-01T09:43:22;101913.78;;;23.79;60.86
64908;BME280;51412;52.236;5.188;2022-08-01T09:45:50;101913.53;;;23.90;60.49
64908;BME280;51412;52.236;5.188;2022-08-01T09:48:17;101920.94;;;24.02;59.72
64908;BME280;51412;52.236;5.188;2022-08-01T09:50:46;101921.97;;;24.09;58.72
64908;BME280;51412;52.236;5.188;2022-08-01T09:53:13;101914.34;;;24.16;58.44
64908;BME280;51412;52.236;5.188;2022-08-01T09:55:42;101923.72;;;24.15;56.30
64908;BME280;51412;52.236;5.188;2022-08-01T09:58:10;101921.75;;;24.16;55.94
64908;BME280;51412;52.236;5.188;2022-08-01T10:00:38;101920.22;;;24.15;56.86
64908;BME280;51412;52.236;5.188;2022-08-01T10:03:20;101920.44;;;24.08;53.44
64908;BME280;51412;52.236;5.188;2022-08-01T10:05:46;101927.91;;;24.03;55.05
64908;BME280;51412;52.236;5.188;2022-08-01T10:08:13;101929.81;;;23.90;56.07
64908;BME280;51412;52.236;5.188;2022-08-01T10:10:41;101919.81;;;23.87;56.93
64908;BME280;51412;52.236;5.188;2022-08-01T10:13:08;101926.25;;;23.93;57.86
64908;BME280;51412;52.236;5.188;2022-08-01T10:15:35;101922.47;;;24.03;57.88
64908;BME280;51412;52.236;5.188;2022-08-01T10:18:06;101934.66;;;24.12;56.62
64908;BME280;51412;52.236;5.188;2022-08-01T10:20:33;101929.47;;;24.17;56.33
64908;BME280;51412;52.236;5.188;2022-08-01T10:23:01;101941.09;;;24.18;56.15
64908;BME280;51412;52.236;5.188;2022-08-01T10:25:33;101934.97;;;24.14;56.38
64908;BME280;51412;52.236;5.188;2022-08-01T10:28:08;101931.09;;;24.15;56.93
64908;BME280;51412;52.236;5.188;2022-08-01T10:30:36;101931.75;;;24.19;57.25
64908;BME280;51412;52.236;5.188;2022-08-01T10:33:04;101930.69;;;24.29;55.85
64908;BME280;51412;52.236;5.188;2022-08-01T10:35:30;101933.50;;;24.26;54.82
64908;BME280;51412;52.236;5.188;2022-08-01T10:37:58;101922.84;;;24.18;55.32
64908;BME280;51412;52.236;5.188;2022-08-01T10:40:25;101940.56;;;24.23;55.25
64908;BME280;51412;52.236;5.188;2022-08-01T10:42:53;101928.59;;;24.20;54.87
64908;BME280;51412;52.236;5.188;2022-08-01T10:45:21;101932.41;;;24.23;54.17
64908;BME280;51412;52.236;5.188;2022-08-01T10:47:53;101931.97;;;24.25;52.84
64908;BME280;51412;52.236;5.188;2022-08-01T10:50:27;101928.72;;;24.30;53.47
64908;BME280;51412;52.236;5.188;2022-08-01T10:53:10;101948.31;;;24.37;52.11
64908;BME280;51412;52.236;5.188;2022-08-01T10:55:46;101944.72;;;24.41;51.31
64908;BME280;51412;52.236;5.188;2022-08-01T10:58:13;101936.78;;;24.46;51.77
64908;BME280;51412;52.236;5.188;2022-08-01T11:00:40;101939.63;;;24.55;52.80
64908;BME280;51412;52.236;5.188;2022-08-01T11:03:07;101942.25;;;24.59;52.52
64908;BME280;51412;52.236;5.188;2022-08-01T11:05:34;101934.19;;;24.55;52.43
64908;BME280;51412;52.236;5.188;2022-08-01T11:08:03;101943.78;;;24.60;52.63
64908;BME280;51412;52.236;5.188;2022-08-01T11:10:37;101942.41;;;24.68;52.69
64908;BME280;51412;52.236;5.188;2022-08-01T11:13:04;101944.25;;;24.71;52.30
64908;BME280;51412;52.236;5.188;2022-08-01T11:15:33;101934.13;;;24.72;51.43
64908;BME280;51412;52.236;5.188;2022-08-01T11:18:03;101949.56;;;24.75;52.01
64908;BME280;51412;52.236;5.188;2022-08-01T11:20:32;101952.94;;;24.79;51.84
64908;BME280;51412;52.236;5.188;2022-08-01T11:23:23;101948.25;;;24.80;51.16
64908;BME280;51412;52.236;5.188;2022-08-01T11:26:10;101961.44;;;24.68;51.16
64908;BME280;51412;52.236;5.188;2022-08-01T11:28:37;101960.25;;;24.69;50.67
64908;BME280;51412;52.236;5.188;2022-08-01T11:31:27;101945.66;;;24.63;49.67
64908;BME280;51412;52.236;5.188;2022-08-01T11:33:55;101955.44;;;24.74;50.87
64908;BME280;51412;52.236;5.188;2022-08-01T11:36:22;101949.25;;;24.73;50.77
64908;BME280;51412;52.236;5.188;2022-08-01T11:39:10;101947.63;;;24.76;49.86
64908;BME280;51412;52.236;5.188;2022-08-01T11:41:39;101954.69;;;24.86;50.21
64908;BME280;51412;52.236;5.188;2022-08-01T11:44:07;101945.00;;;24.98;48.76
64908;BME280;51412;52.236;5.188;2022-08-01T11:46:55;101951.84;;;25.02;46.68
64908;BME280;51412;52.236;5.188;2022-08-01T11:49:43;101943.78;;;25.12;48.44
64908;BME280;51412;52.236;5.188;2022-08-01T11:52:12;101951.41;;;25.17;48.73
64908;BME280;51412;52.236;5.188;2022-08-01T11:54:40;101956.06;;;25.29;48.91
64908;BME280;51412;52.236;5.188;2022-08-01T11:57:10;101956.50;;;25.41;47.74
64908;BME280;51412;52.236;5.188;2022-08-01T11:59:39;101957.66;;;25.52;47.57
64908;BME280;51412;52.236;5.188;2022-08-01T12:02:16;101956.34;;;25.57;45.02
64908;BME280;51412;52.236;5.188;2022-08-01T12:04:47;101948.81;;;25.61;47.06
64908;BME280;51412;52.236;5.188;2022-08-01T12:07:15;101954.66;;;25.72;46.46
64908;BME280;51412;52.236;5.188;2022-08-01T12:09:42;101951.88;;;25.85;45.73
64908;BME280;51412;52.236;5.188;2022-08-01T12:12:11;101951.19;;;25.94;45.11
64908;BME280;51412;52.236;5.188;2022-08-01T12:14:42;101961.19;;;25.97;45.80
64908;BME280;51412;52.236;5.188;2022-08-01T12:17:09;101958.22;;;26.04;44.95
64908;BME280;51412;52.236;5.188;2022-08-01T12:19:36;101959.81;;;26.15;45.36
64908;BME280;51412;52.236;5.188;2022-08-01T12:22:05;101956.84;;;26.22;44.64
64908;BME280;51412;52.236;5.188;2022-08-01T12:24:32;101955.91;;;26.16;44.37
64908;BME280;51412;52.236;5.188;2022-08-01T12:26:59;101962.91;;;26.26;44.39
64908;BME280;51412;52.236;5.188;2022-08-01T12:29:37;101953.72;;;26.33;43.32
64908;BME280;51412;52.236;5.188;2022-08-01T12:32:20;101955.16;;;26.47;43.83
64908;BME280;51412;52.236;5.188;2022-08-01T12:34:47;101964.81;;;26.38;43.34
64908;BME280;51412;52.236;5.188;2022-08-01T12:37:14;101963.28;;;26.37;41.93
64908;BME280;51412;52.236;5.188;2022-08-01T12:39:40;101962.78;;;26.30;41.57
64908;BME280;51412;52.236;5.188;2022-08-01T12:42:07;101964.44;;;26.27;41.60
64908;BME280;51412;52.236;5.188;2022-08-01T12:44:37;101955.19;;;26.25;42.82
64908;BME280;51412;52.236;5.188;2022-08-01T12:47:05;101959.31;;;26.29;42.47
64908;BME280;51412;52.236;5.188;2022-08-01T12:49:32;101966.72;;;26.29;42.90
64908;BME280;51412;52.236;5.188;2022-08-01T12:51:59;101973.06;;;26.26;41.81
64908;BME280;51412;52.236;5.188;2022-08-01T12:54:27;101960.16;;;26.17;43.00
64908;BME280;51412;52.236;5.188;2022-08-01T12:56:53;101960.50;;;26.28;42.96
64908;BME280;51412;52.236;5.188;2022-08-01T12:59:21;101971.78;;;26.39;42.81